Time;durP1;ratioP1;P1;durP2;ratioP2;P2;SDS_P1;SDS_P2;PMS_P1;PMS_P2;Temp;Humidity;BMP_temperature;BMP_pressure;BME280_temperature;BME280_humidity;BME280_pressure;Samples;Min_cycle;Max_cycle;Signal;HPM_P1;HPM_P2
2021/03/05 00:00:29;;;;;;;16.60;7.93;;;4.20;99.90;;;;;;5047920;28;20126;-86
2021/03/05 00:02:55;;;;;;;16.50;8.77;;;4.20;99.90;;;;;;5031786;28;20673;-87
2021/03/05 00:05:21;;;;;;;14.90;9.23;;;4.20;99.90;;;;;;5027424;28;20132;-86
2021/03/05 00:07:46;;;;;;;17.00;10.52;;;4.20;99.90;;;;;;5027220;28;20130;-86
2021/03/05 00:10:15;;;;;;;14.80;9.10;;;4.20;99.90;;;;;;5037652;28;20375;-86
2021/03/05 00:12:41;;;;;;;14.75;8.07;;;4.20;99.90;;;;;;5031457;28;20044;-86
2021/03/05 00:15:12;;;;;;;18.63;10.48;;;4.20;99.90;;;;;;5026520;28;20128;-87
2021/03/05 00:17:38;;;;;;;15.57;9.60;;;4.20;99.90;;;;;;5034907;28;20095;-87
2021/03/05 00:20:12;;;;;;;15.95;10.30;;;4.20;99.90;;;;;;5047217;28;20033;-85
2021/03/05 00:22:38;;;;;;;16.25;9.15;;;4.20;99.90;;;;;;5046901;28;20044;-86
2021/03/05 00:25:05;;;;;;;15.90;9.50;;;4.10;99.90;;;;;;5030698;28;20030;-86
2021/03/05 00:27:31;;;;;;;19.02;10.38;;;4.10;99.90;;;;;;5039655;28;20038;-85
2021/03/05 00:29:57;;;;;;;16.55;10.00;;;4.10;99.90;;;;;;5027770;28;20502;-86
2021/03/05 00:32:23;;;;;;;16.48;9.85;;;4.10;99.90;;;;;;5027042;28;20063;-86
2021/03/05 00:34:48;;;;;;;17.23;10.60;;;4.00;99.90;;;;;;5026606;28;20048;-86
2021/03/05 00:37:14;;;;;;;16.77;9.45;;;4.00;99.90;;;;;;5050558;28;20044;-86
2021/03/05 00:39:40;;;;;;;15.52;10.00;;;4.00;99.90;;;;;;5051184;28;20032;-86
2021/03/05 00:42:06;;;;;;;14.65;9.05;;;4.00;99.90;;;;;;5050994;28;20077;-85
2021/03/05 00:44:31;;;;;;;17.42;10.05;;;4.00;99.90;;;;;;5052555;28;20116;-86
2021/03/05 00:46:57;;;;;;;14.93;9.00;;;4.00;99.90;;;;;;5051804;28;20453;-89
2021/03/05 00:49:22;;;;;;;17.85;10.75;;;4.00;99.90;;;;;;5052032;28;20072;-89
2021/03/05 00:51:48;;;;;;;17.02;10.05;;;4.00;99.90;;;;;;5051555;28;20037;-88
2021/03/05 00:54:14;;;;;;;14.85;8.75;;;4.00;99.90;;;;;;5051297;28;20057;-88
2021/03/05 00:56:40;;;;;;;14.40;9.07;;;4.00;99.90;;;;;;5051798;28;20063;-88
2021/03/05 00:59:06;;;;;;;19.02;10.50;;;4.00;99.90;;;;;;5051930;28;20022;-89
2021/03/05 01:01:31;;;;;;;16.45;9.57;;;3.90;99.90;;;;;;5051826;28;20025;-88
2021/03/05 01:03:57;;;;;;;16.73;9.30;;;3.90;99.90;;;;;;5051503;28;20056;-87
2021/03/05 01:06:22;;;;;;;16.88;9.50;;;3.80;99.90;;;;;;5051307;28;20040;-87
2021/03/05 01:08:48;;;;;;;14.07;9.65;;;3.70;99.90;;;;;;5051174;28;20059;-88
2021/03/05 01:11:14;;;;;;;16.00;9.57;;;3.60;99.90;;;;;;5054896;28;20021;-87
2021/03/05 01:13:40;;;;;;;14.75;9.05;;;3.50;99.90;;;;;;5054853;28;20124;-88
2021/03/05 01:16:06;;;;;;;14.98;9.07;;;3.40;99.90;;;;;;5054805;28;20390;-88
2021/03/05 01:18:31;;;;;;;13.75;8.25;;;3.30;99.90;;;;;;5054612;28;20037;-87
2021/03/05 01:20:57;;;;;;;13.02;8.20;;;3.20;99.90;;;;;;5054946;28;20490;-88
2021/03/05 01:23:23;;;;;;;12.45;8.23;;;3.20;99.90;;;;;;5054461;28;20132;-86
2021/03/05 01:25:48;;;;;;;11.25;7.75;;;3.10;99.90;;;;;;5054368;28;20120;-86
2021/03/05 01:28:14;;;;;;;12.57;7.40;;;3.00;99.90;;;;;;5054637;28;20033;-87
2021/03/05 01:30:40;;;;;;;12.95;8.50;;;3.00;99.90;;;;;;5054711;28;20263;-87
2021/03/05 01:33:06;;;;;;;10.15;6.97;;;2.90;99.90;;;;;;5055238;28;20491;-86
2021/03/05 01:35:31;;;;;;;13.73;8.73;;;2.80;99.90;;;;;;5054393;28;20079;-87
2021/03/05 01:37:57;;;;;;;10.73;7.03;;;2.80;99.90;;;;;;5054783;28;20072;-86
2021/03/05 01:40:33;;;;;;;14.15;8.13;;;2.70;99.90;;;;;;5055434;28;20463;-88
2021/03/05 01:42:59;;;;;;;15.48;8.32;;;2.70;99.90;;;;;;5054147;28;20391;-88
2021/03/05 01:45:29;;;;;;;12.80;8.45;;;2.70;99.90;;;;;;5054493;28;20074;-86
2021/03/05 01:48:03;;;;;;;13.23;8.80;;;2.60;99.90;;;;;;5037701;28;20029;-86
2021/03/05 01:50:33;;;;;;;12.43;7.93;;;2.50;99.90;;;;;;5054244;28;20032;-88
2021/03/05 01:53:02;;;;;;;12.43;8.98;;;2.50;99.90;;;;;;5054217;28;20496;-87
2021/03/05 01:55:27;;;;;;;14.68;8.45;;;2.50;99.90;;;;;;5053958;28;20033;-87
2021/03/05 01:57:54;;;;;;;12.45;8.88;;;2.40;99.90;;;;;;5053976;28;20537;-87
2021/03/05 02:00:31;;;;;;;11.57;7.95;;;2.30;99.90;;;;;;5053920;28;20076;-87
2021/03/05 02:02:57;;;;;;;14.30;8.77;;;2.30;99.90;;;;;;5037408;28;20139;-87
2021/03/05 02:05:23;;;;;;;13.10;8.38;;;2.30;99.90;;;;;;5053878;28;20549;-86
2021/03/05 02:07:48;;;;;;;14.85;8.75;;;2.20;99.90;;;;;;5054553;28;20056;-86
2021/03/05 02:10:14;;;;;;;14.30;8.75;;;2.20;99.90;;;;;;5053739;28;20033;-84
2021/03/05 02:12:40;;;;;;;13.38;8.48;;;2.20;99.90;;;;;;5053105;28;20127;-85
2021/03/05 02:15:06;;;;;;;13.88;7.90;;;2.10;99.90;;;;;;5054085;28;20040;-86
2021/03/05 02:17:39;;;;;;;13.00;8.25;;;2.10;99.90;;;;;;5053716;28;20044;-85
2021/03/05 02:20:16;;;;;;;;;;;2.00;99.90;;;;;;5053756;28;20029;-86
2021/03/05 02:23:19;;;;;;;15.48;8.50;;;2.00;99.90;;;;;;5036903;28;19912;-87
2021/03/05 02:26:11;;;;;;;13.97;8.63;;;2.00;99.90;;;;;;5036940;28;20041;-87
2021/03/05 02:28:55;;;;;;;12.45;7.65;;;1.90;99.90;;;;;;5054383;28;20044;-87
2021/03/05 02:31:48;;;;;;;12.90;7.85;;;1.90;99.90;;;;;;5054173;28;20033;-87
2021/03/05 02:34:20;;;;;;;12.82;7.35;;;1.80;99.90;;;;;;5054156;28;20044;-87
2021/03/05 02:36:55;;;;;;;12.98;7.95;;;1.70;99.90;;;;;;5054242;28;20029;-88
2021/03/05 02:39:31;;;;;;;12.60;8.32;;;1.70;99.90;;;;;;5054501;28;20107;-87
2021/03/05 02:42:02;;;;;;;10.55;6.78;;;1.70;99.90;;;;;;5054529;28;20033;-88
2021/03/05 02:44:32;;;;;;;14.18;8.02;;;1.60;99.90;;;;;;5036657;28;20068;-88
2021/03/05 02:47:06;;;;;;;10.60;6.60;;;1.60;99.90;;;;;;5053527;28;20483;-87
2021/03/05 02:49:35;;;;;;;14.02;7.57;;;1.60;99.90;;;;;;5052668;28;20033;-88
2021/03/05 02:52:12;;;;;;;11.65;7.72;;;1.60;99.90;;;;;;5054352;28;20056;-86
2021/03/05 02:54:40;;;;;;;12.73;7.60;;;1.50;99.90;;;;;;5054105;28;20095;-86
2021/03/05 02:57:09;;;;;;;14.38;8.65;;;1.50;99.90;;;;;;5053005;28;20133;-89
2021/03/05 02:59:37;;;;;;;14.43;8.23;;;1.50;99.90;;;;;;5054160;28;20029;-88
2021/03/05 03:02:03;;;;;;;14.63;8.60;;;1.40;99.90;;;;;;5052540;28;20040;-87
2021/03/05 03:04:30;;;;;;;13.20;8.35;;;1.40;99.90;;;;;;5052582;28;20487;-87
2021/03/05 03:06:57;;;;;;;12.80;7.72;;;1.40;99.90;;;;;;5053391;28;20076;-88
2021/03/05 03:09:23;;;;;;;15.65;8.88;;;1.30;99.90;;;;;;5053924;28;20094;-88
2021/03/05 03:11:48;;;;;;;14.00;8.60;;;1.30;99.90;;;;;;5052712;28;20032;-87
2021/03/05 03:14:15;;;;;;;14.32;7.07;;;1.30;99.90;;;;;;5052703;28;20028;-88
2021/03/05 03:16:43;;;;;;;14.35;7.72;;;1.30;99.90;;;;;;5036262;28;20055;-87
2021/03/05 03:19:12;;;;;;;16.50;9.93;;;1.20;99.90;;;;;;5052498;28;20036;-88
2021/03/05 03:21:38;;;;;;;15.93;8.93;;;1.20;99.90;;;;;;5053438;28;20037;-87
2021/03/05 03:24:05;;;;;;;14.27;8.15;;;1.20;99.90;;;;;;5053585;28;20033;-86
2021/03/05 03:26:31;;;;;;;18.30;9.30;;;1.10;99.90;;;;;;5052544;28;20033;-87
2021/03/05 03:28:56;;;;;;;18.73;9.52;;;1.10;99.90;;;;;;5035908;28;20040;-87
2021/03/05 03:31:22;;;;;;;13.98;8.73;;;1.10;99.90;;;;;;5052227;28;20036;-87
2021/03/05 03:33:48;;;;;;;16.48;8.25;;;1.10;99.90;;;;;;5052080;28;20029;-87
2021/03/05 03:36:14;;;;;;;15.25;7.78;;;1.00;99.90;;;;;;5052174;28;20120;-86
2021/03/05 03:38:40;;;;;;;14.60;7.88;;;1.00;99.90;;;;;;5052502;28;20033;-86
2021/03/05 03:41:06;;;;;;;13.57;8.10;;;1.00;99.90;;;;;;5051955;28;20094;-88
2021/03/05 03:43:32;;;;;;;12.68;7.85;;;1.00;99.90;;;;;;5052030;28;20037;-87
2021/03/05 03:45:58;;;;;;;12.18;6.93;;;1.00;99.90;;;;;;5051902;28;20025;-90
2021/03/05 03:48:27;;;;;;;14.07;7.63;;;1.00;99.90;;;;;;5052037;28;20037;-86
2021/03/05 03:51:00;;;;;;;13.77;7.00;;;0.90;99.90;;;;;;5052070;28;20566;-88
2021/03/05 03:53:28;;;;;;;14.15;7.55;;;0.90;99.90;;;;;;5053177;28;20415;-87
2021/03/05 03:55:54;;;;;;;13.63;6.65;;;0.90;99.90;;;;;;5051736;28;20115;-87
2021/03/05 03:58:22;;;;;;;12.73;7.07;;;0.90;99.90;;;;;;5052848;28;20029;-88
2021/03/05 04:00:52;;;;;;;11.20;7.05;;;0.90;99.90;;;;;;5034960;28;20044;-88
2021/03/05 04:03:19;;;;;;;11.90;6.05;;;0.90;99.90;;;;;;5053021;28;20526;-89
2021/03/05 04:05:48;;;;;;;11.27;6.05;;;0.80;99.90;;;;;;5052912;28;20025;-88
2021/03/05 04:08:14;;;;;;;9.30;5.32;;;0.80;99.90;;;;;;5051258;28;20049;-85
2021/03/05 04:10:41;;;;;;;9.45;5.47;;;0.80;99.90;;;;;;5051607;28;20026;-87
2021/03/05 04:13:10;;;;;;;9.75;5.93;;;0.80;99.90;;;;;;5034971;28;20062;-87
2021/03/05 04:15:37;;;;;;;11.50;5.60;;;0.80;99.90;;;;;;5051674;28;20044;-88
2021/03/05 04:18:03;;;;;;;14.45;6.00;;;0.80;99.90;;;;;;5034940;28;20107;-89
2021/03/05 04:20:30;;;;;;;10.18;5.50;;;0.80;99.90;;;;;;5052399;28;20279;-89
2021/03/05 04:22:56;;;;;;;8.77;5.35;;;0.70;99.90;;;;;;5051606;28;20041;-87
2021/03/05 04:25:22;;;;;;;13.23;6.15;;;0.70;99.90;;;;;;5051223;28;20080;-86
2021/03/05 04:27:47;;;;;;;12.07;6.78;;;0.60;99.90;;;;;;5051670;28;20037;-87
2021/03/05 04:30:14;;;;;;;10.77;6.25;;;0.70;99.90;;;;;;5051119;28;20025;-87
2021/03/05 04:32:42;;;;;;;10.82;5.93;;;0.60;99.90;;;;;;5052749;28;20055;-87
2021/03/05 04:35:09;;;;;;;10.80;6.13;;;0.60;99.90;;;;;;5051563;28;20128;-87
2021/03/05 04:37:34;;;;;;;11.57;6.22;;;0.60;99.90;;;;;;5034925;28;20045;-86
2021/03/05 04:40:00;;;;;;;12.50;6.22;;;0.60;99.90;;;;;;5051682;28;20557;-87
2021/03/05 04:42:26;;;;;;;15.43;7.60;;;0.60;99.90;;;;;;5051382;28;20041;-87
2021/03/05 04:44:51;;;;;;;13.98;7.18;;;0.60;99.90;;;;;;5054600;28;20083;-87
2021/03/05 04:47:17;;;;;;;12.43;6.25;;;0.60;99.90;;;;;;5056435;28;20037;-87
2021/03/05 04:49:43;;;;;;;13.27;6.68;;;0.60;99.90;;;;;;5055028;28;20033;-88
2021/03/05 04:52:08;;;;;;;10.48;6.03;;;0.60;99.90;;;;;;5056399;28;20052;-88
2021/03/05 04:54:34;;;;;;;11.30;5.85;;;0.60;99.90;;;;;;5056191;28;20067;-87
2021/03/05 04:56:59;;;;;;;10.20;6.05;;;0.50;99.90;;;;;;5055003;28;20171;-88
2021/03/05 04:59:25;;;;;;;11.32;6.28;;;0.50;99.90;;;;;;5054952;28;20043;-87
2021/03/05 05:01:51;;;;;;;11.43;6.18;;;0.50;99.90;;;;;;5054617;28;20045;-87
2021/03/05 05:04:16;;;;;;;12.00;6.20;;;0.40;99.90;;;;;;5054654;28;20037;-89
2021/03/05 05:06:42;;;;;;;13.13;7.30;;;0.40;99.90;;;;;;5055091;28;20037;-89
2021/03/05 05:09:07;;;;;;;11.25;6.03;;;0.40;99.90;;;;;;5054706;28;20054;-87
2021/03/05 05:11:33;;;;;;;12.57;6.55;;;0.30;99.90;;;;;;5056205;28;20442;-87
2021/03/05 05:13:58;;;;;;;12.63;6.82;;;0.30;99.90;;;;;;5054771;28;20036;-87
2021/03/05 05:16:28;;;;;;;12.80;6.18;;;0.30;99.90;;;;;;5055504;28;20032;-89
2021/03/05 05:18:53;;;;;;;13.57;6.70;;;0.30;99.90;;;;;;5054874;28;20025;-88
2021/03/05 05:21:19;;;;;;;11.63;5.80;;;0.20;99.90;;;;;;5054986;28;20396;-89
2021/03/05 05:23:45;;;;;;;10.50;5.85;;;0.20;99.90;;;;;;5054688;28;20395;-89
2021/03/05 05:26:15;;;;;;;9.85;5.32;;;0.20;99.90;;;;;;5054906;28;20029;-88
2021/03/05 05:28:41;;;;;;;14.10;6.03;;;0.20;99.90;;;;;;5038035;28;20037;-87
2021/03/05 05:31:07;;;;;;;12.15;5.20;;;0.10;99.90;;;;;;5054322;28;20057;-88
2021/03/05 05:33:32;;;;;;;12.73;5.70;;;0.10;99.90;;;;;;5054164;28;20102;-87
2021/03/05 05:35:58;;;;;;;11.02;5.22;;;0.10;99.90;;;;;;5054468;28;20029;-88
2021/03/05 05:38:23;;;;;;;11.55;5.95;;;0.10;99.90;;;;;;5054000;28;20109;-87
2021/03/05 05:40:49;;;;;;;11.23;5.40;;;0.10;99.90;;;;;;5054024;28;20111;-88
2021/03/05 05:43:15;;;;;;;11.35;5.30;;;0.10;99.90;;;;;;5037415;28;20494;-87
2021/03/05 05:45:44;;;;;;;10.02;5.68;;;0.00;99.90;;;;;;5053972;28;20025;-87
2021/03/05 05:48:12;;;;;;;9.70;5.65;;;0.00;99.90;;;;;;5054890;28;20040;-86
2021/03/05 05:50:38;;;;;;;11.23;5.57;;;0.00;99.90;;;;;;5055152;28;20091;-88
2021/03/05 05:53:06;;;;;;;9.88;5.30;;;0.00;99.90;;;;;;5053978;28;20037;-88
2021/03/05 05:55:32;;;;;;;9.18;4.95;;;-0.10;99.90;;;;;;5053356;28;20128;-88
2021/03/05 05:57:58;;;;;;;10.50;4.53;;;-0.10;99.90;;;;;;5053625;28;20060;-86
2021/03/05 06:00:25;;;;;;;9.45;4.70;;;-0.10;99.90;;;;;;5053799;28;20478;-87
2021/03/05 06:02:50;;;;;;;8.68;4.70;;;-0.10;99.90;;;;;;5053763;28;20418;-88
2021/03/05 06:05:16;;;;;;;10.10;5.38;;;-0.10;99.90;;;;;;5054200;28;20025;-88
2021/03/05 06:07:45;;;;;;;10.15;5.47;;;-0.10;99.90;;;;;;5053289;28;20482;-88
2021/03/05 06:10:12;;;;;;;8.27;4.85;;;-0.10;99.90;;;;;;5055154;28;20029;-88
2021/03/05 06:12:39;;;;;;;9.80;4.18;;;-0.10;99.90;;;;;;5055125;28;20037;-89
2021/03/05 06:15:07;;;;;;;8.70;4.13;;;-0.10;99.90;;;;;;5033954;28;20036;-89
2021/03/05 06:17:46;;;;;;;8.18;4.30;;;-0.20;99.90;;;;;;5048991;28;20044;-92
2021/03/05 06:20:13;;;;;;;8.27;4.43;;;-0.10;99.90;;;;;;5046759;28;20504;-94
2021/03/05 06:22:39;;;;;;;8.40;4.25;;;-0.30;99.90;;;;;;5040094;28;20045;-87
2021/03/05 06:25:07;;;;;;;8.18;3.80;;;-0.20;99.90;;;;;;5054396;28;20382;-86
2021/03/05 06:27:32;;;;;;;8.23;3.95;;;-0.20;99.90;;;;;;5052771;28;20640;-87
2021/03/05 06:29:58;;;;;;;6.70;3.67;;;-0.20;99.90;;;;;;5053377;28;20032;-87
2021/03/05 06:32:53;;;;;;;9.68;4.75;;;-0.20;99.90;;;;;;5053164;28;20033;-86
2021/03/05 06:35:24;;;;;;;10.25;4.05;;;-0.20;99.90;;;;;;5036575;28;20104;-86
2021/03/05 06:37:49;;;;;;;10.07;4.57;;;-0.20;99.90;;;;;;5052614;28;20068;-87
2021/03/05 06:40:15;;;;;;;6.88;3.95;;;-0.10;99.90;;;;;;5052439;28;20071;-87
2021/03/05 06:42:51;;;;;;;9.15;4.05;;;-0.10;99.90;;;;;;5053978;28;20041;-86
2021/03/05 06:45:19;;;;;;;7.93;4.05;;;0.00;99.90;;;;;;5052626;28;20445;-87
2021/03/05 06:48:06;;;;;;;8.85;4.47;;;0.00;99.90;;;;;;5052897;28;20368;-86
2021/03/05 06:50:43;;;;;;;8.93;3.47;;;0.10;99.90;;;;;;5053865;28;20025;-86
2021/03/05 06:53:27;;;;;;;8.23;3.65;;;0.10;99.90;;;;;;5052849;28;20048;-87
2021/03/05 06:55:53;;;;;;;8.07;4.13;;;0.20;99.90;;;;;;5052680;28;20040;-88
2021/03/05 06:58:19;;;;;;;7.13;3.55;;;0.30;99.90;;;;;;5052564;28;20115;-88
2021/03/05 07:00:44;;;;;;;8.77;3.72;;;0.30;99.90;;;;;;5052516;28;20072;-87
2021/03/05 07:03:23;;;;;;;6.40;3.15;;;0.40;99.90;;;;;;5035687;28;20124;-87
2021/03/05 07:05:53;;;;;;;8.55;3.63;;;0.40;99.90;;;;;;5053577;28;20035;-87
2021/03/05 07:08:41;;;;;;;6.25;2.70;;;0.40;99.90;;;;;;5051168;28;20103;-86
2021/03/05 07:11:10;;;;;;;7.75;3.30;;;0.50;99.90;;;;;;5052415;28;20124;-88
2021/03/05 07:13:51;;;;;;;7.22;3.10;;;0.50;99.90;;;;;;5053682;28;20098;-87
2021/03/05 07:16:18;;;;;;;6.80;2.90;;;0.50;99.90;;;;;;5051885;28;20033;-87
2021/03/05 07:18:44;;;;;;;7.82;3.42;;;0.60;99.90;;;;;;5052033;28;20475;-86
2021/03/05 07:21:10;;;;;;;10.20;3.42;;;0.60;99.90;;;;;;5053730;28;20029;-86
2021/03/05 07:23:37;;;;;;;6.28;3.13;;;0.60;99.90;;;;;;5061702;28;20043;-86
2021/03/05 07:26:06;;;;;;;4.85;2.50;;;0.70;99.90;;;;;;5071703;28;20446;-87
2021/03/05 07:28:35;;;;;;;6.25;2.90;;;0.80;99.90;;;;;;5071741;28;20127;-88
2021/03/05 07:31:02;;;;;;;7.32;2.70;;;0.80;99.90;;;;;;5071701;28;20036;-88
2021/03/05 07:33:37;;;;;;;6.20;2.80;;;0.90;99.90;;;;;;5072131;28;20024;-86
2021/03/05 07:36:08;;;;;;;8.45;3.13;;;0.90;99.90;;;;;;5071898;28;20033;-86
2021/03/05 07:38:35;;;;;;;6.43;3.00;;;1.10;99.90;;;;;;5071643;28;20040;-85
2021/03/05 07:41:02;;;;;;;6.80;2.88;;;1.20;99.90;;;;;;5072622;28;20029;-86
2021/03/05 07:43:29;;;;;;;7.13;2.75;;;1.30;99.90;;;;;;5071582;28;20036;-86
2021/03/05 07:45:54;;;;;;;4.80;2.45;;;1.50;99.90;;;;;;5072793;28;20061;-86
2021/03/05 07:48:21;;;;;;;8.80;3.00;;;1.60;99.90;;;;;;5072954;28;20104;-85
2021/03/05 07:50:47;;;;;;;6.38;2.78;;;1.70;99.90;;;;;;5071487;28;20442;-87
2021/03/05 07:53:13;;;;;;;7.90;2.70;;;1.80;99.90;;;;;;5072552;28;20548;-86
2021/03/05 07:55:43;;;;;;;7.03;3.05;;;1.70;99.90;;;;;;5071607;28;20024;-86
2021/03/05 07:58:09;;;;;;;11.15;5.43;;;1.70;99.90;;;;;;5073169;28;20643;-86
2021/03/05 08:00:47;;;;;;;8.77;3.00;;;1.80;99.90;;;;;;5071772;28;20035;-86
2021/03/05 08:03:13;;;;;;;10.02;3.50;;;1.90;99.90;;;;;;5072262;28;20043;-87
2021/03/05 08:05:47;;;;;;;7.45;3.22;;;2.00;99.90;;;;;;5075664;28;20040;-87
2021/03/05 08:08:20;;;;;;;7.38;2.92;;;2.10;99.90;;;;;;5073306;28;20049;-87
2021/03/05 08:10:48;;;;;;;7.90;3.10;;;2.20;99.90;;;;;;5071966;28;20044;-87
2021/03/05 08:13:35;;;;;;;7.82;3.03;;;2.40;99.90;;;;;;5071834;28;20182;-86
2021/03/05 08:16:40;;;;;;;8.23;3.28;;;2.40;99.90;;;;;;5054649;28;20043;-86
2021/03/05 08:19:05;;;;;;;7.25;2.97;;;2.50;99.90;;;;;;4993801;28;20596;-87
2021/03/05 08:21:57;;;;;;;6.18;2.42;;;2.40;99.90;;;;;;4979092;28;20038;-88
2021/03/05 08:24:31;;;;;;;8.60;2.72;;;2.40;99.90;;;;;;5047553;28;20033;-87
2021/03/05 08:27:02;;;;;;;10.52;2.67;;;2.30;99.90;;;;;;5075485;28;20087;-84
2021/03/05 08:29:46;;;;;;;6.57;2.58;;;2.30;99.90;;;;;;5058400;28;20039;-84
2021/03/05 08:32:31;;;;;;;8.95;2.15;;;2.40;99.90;;;;;;5058366;28;20037;-85
2021/03/05 08:35:09;;;;;;;7.05;2.13;;;2.40;99.50;;;;;;5076366;28;20033;-85
2021/03/05 08:37:45;;;;;;;4.80;1.52;;;2.50;99.40;;;;;;5076573;28;20041;-87
2021/03/05 08:40:14;;;;;;;8.90;2.05;;;2.50;99.30;;;;;;5075557;28;20037;-86
2021/03/05 08:42:42;;;;;;;5.20;1.55;;;2.60;98.40;;;;;;5072092;28;21360;-85
2021/03/05 08:45:28;;;;;;;5.60;2.15;;;2.60;98.60;;;;;;5041068;28;20043;-86
2021/03/05 08:47:57;;;;;;;11.90;2.45;;;2.70;97.90;;;;;;5042927;28;20518;-86
2021/03/05 08:50:30;;;;;;;6.38;1.60;;;2.70;97.30;;;;;;5039707;28;20025;-86
2021/03/05 08:52:58;;;;;;;5.35;1.55;;;2.70;97.10;;;;;;5055667;28;20508;-87
2021/03/05 08:55:28;;;;;;;4.50;1.20;;;2.80;97.10;;;;;;5056316;28;20163;-87
2021/03/05 08:57:55;;;;;;;5.78;1.35;;;2.80;97.10;;;;;;5055558;28;20035;-89
2021/03/05 09:00:22;;;;;;;4.78;1.42;;;2.90;97.10;;;;;;5055010;28;20560;-90
2021/03/05 09:02:50;;;;;;;3.22;1.10;;;2.90;96.50;;;;;;5037793;28;20041;-91
2021/03/05 09:05:26;;;;;;;3.35;1.27;;;3.00;96.20;;;;;;5055859;28;20048;-90
2021/03/05 09:08:13;;;;;;;5.03;1.27;;;3.00;96.00;;;;;;5055457;28;20059;-87
2021/03/05 09:11:06;;;;;;;5.22;1.42;;;3.10;95.60;;;;;;5059618;28;20429;-88
2021/03/05 09:13:34;;;;;;;5.30;1.60;;;3.10;95.20;;;;;;5055971;28;20068;-89
2021/03/05 09:16:01;;;;;;;3.20;1.00;;;3.20;94.70;;;;;;5055513;28;20275;-90
2021/03/05 09:18:33;;;;;;;5.95;1.00;;;3.20;95.20;;;;;;5055951;28;20033;-89
2021/03/05 09:21:07;;;;;;;7.22;1.00;;;3.30;95.10;;;;;;5044824;28;20041;-87
2021/03/05 09:23:41;;;;;;;5.10;1.00;;;3.40;94.20;;;;;;5034750;28;20128;-89
2021/03/05 09:26:17;;;;;;;3.95;0.98;;;3.50;94.10;;;;;;5042343;28;20044;-89
2021/03/05 09:28:46;;;;;;;5.13;1.40;;;3.50;93.30;;;;;;5055843;28;20025;-90
2021/03/05 09:31:15;;;;;;;3.53;1.00;;;3.60;93.10;;;;;;5054822;28;20037;-89
2021/03/05 09:33:43;;;;;;;6.63;1.63;;;3.70;93.00;;;;;;5053615;28;20037;-91
2021/03/05 09:36:17;;;;;;;3.65;1.08;;;3.80;93.90;;;;;;5052882;28;20029;-89
2021/03/05 09:38:45;;;;;;;2.65;1.10;;;5.00;94.70;;;;;;5056700;28;20049;-88
2021/03/05 09:41:22;;;;;;;2.60;0.88;;;6.80;94.00;;;;;;5052869;28;20029;-87
2021/03/05 09:44:09;;;;;;;3.00;0.90;;;8.40;92.20;;;;;;5052635;28;20499;-88
2021/03/05 09:46:38;;;;;;;3.85;0.90;;;10.10;90.60;;;;;;5036219;28;20037;-88
2021/03/05 09:49:25;;;;;;;3.50;1.00;;;11.10;87.50;;;;;;5055910;28;20033;-87
2021/03/05 09:51:51;;;;;;;3.28;0.80;;;11.90;80.30;;;;;;5056559;28;20067;-87
2021/03/05 09:54:19;;;;;;;2.47;0.70;;;12.20;76.70;;;;;;5053638;28;20033;-86
2021/03/05 09:56:46;;;;;;;3.78;0.80;;;12.60;74.30;;;;;;5053205;28;20033;-89
2021/03/05 09:59:12;;;;;;;3.63;1.02;;;13.00;72.70;;;;;;5053373;28;20497;-88
2021/03/05 10:01:43;;;;;;;2.95;0.75;;;13.20;67.50;;;;;;5052818;28;20036;-88
2021/03/05 10:04:11;;;;;;;3.17;0.60;;;13.40;67.20;;;;;;5052161;28;20390;-89
2021/03/05 10:06:37;;;;;;;2.03;0.65;;;13.90;66.50;;;;;;5052515;28;20387;-87
2021/03/05 10:09:10;;;;;;;3.53;0.60;;;14.00;63.20;;;;;;5034848;28;20060;-88
2021/03/05 10:11:38;;;;;;;1.20;0.40;;;14.30;61.60;;;;;;5051835;28;20045;-88
2021/03/05 10:14:09;;;;;;;2.42;0.60;;;14.50;60.40;;;;;;5037396;28;20030;-86
2021/03/05 10:16:37;;;;;;;4.32;1.00;;;14.90;60.60;;;;;;5032057;28;20470;-86
2021/03/05 10:19:06;;;;;;;2.88;0.77;;;15.10;56.20;;;;;;5032247;28;20033;-88
2021/03/05 10:21:34;;;;;;;2.22;0.70;;;14.80;53.50;;;;;;5031020;28;20583;-87
2021/03/05 10:24:08;;;;;;;1.90;0.47;;;14.80;53.70;;;;;;5032747;28;20125;-87
2021/03/05 10:26:33;;;;;;;2.08;0.60;;;15.20;54.20;;;;;;5015573;28;20033;-86
2021/03/05 10:29:07;;;;;;;2.05;0.57;;;15.40;53.70;;;;;;5030280;28;20041;-86
2021/03/05 10:31:50;;;;;;;2.47;0.90;;;15.70;51.70;;;;;;5030557;28;20052;-88
2021/03/05 10:34:23;;;;;;;3.67;0.50;;;15.80;50.70;;;;;;5033024;28;20059;-88
2021/03/05 10:36:57;;;;;;;1.80;0.60;;;15.80;50.00;;;;;;5023189;28;20022;-86
2021/03/05 10:39:23;;;;;;;3.45;0.80;;;16.20;50.00;;;;;;5036203;28;20455;-86
2021/03/05 10:41:50;;;;;;;2.30;0.70;;;16.40;47.60;;;;;;5033601;28;20398;-87
2021/03/05 10:44:16;;;;;;;1.38;0.40;;;16.40;47.30;;;;;;5039936;28;20053;-87
2021/03/05 10:46:41;;;;;;;2.47;0.60;;;16.70;48.90;;;;;;5034158;28;20471;-89
2021/03/05 10:49:07;;;;;;;2.83;0.60;;;16.80;46.50;;;;;;5050726;28;20060;-86
2021/03/05 10:51:32;;;;;;;1.00;0.47;;;17.00;45.90;;;;;;5033298;28;20026;-86
2021/03/05 10:53:58;;;;;;;1.35;0.50;;;17.00;45.40;;;;;;5033311;28;20076;-87
2021/03/05 10:56:23;;;;;;;2.58;0.50;;;17.20;44.60;;;;;;5047916;28;20033;-87
2021/03/05 10:58:49;;;;;;;2.22;0.60;;;17.10;43.50;;;;;;5036468;28;20450;-90
2021/03/05 11:01:15;;;;;;;3.97;0.50;;;16.80;43.10;;;;;;5054418;28;20096;-86
2021/03/05 11:03:40;;;;;;;2.78;0.52;;;16.80;43.70;;;;;;5039133;28;20052;-88
2021/03/05 11:06:06;;;;;;;2.55;0.50;;;17.10;43.70;;;;;;5040379;28;20033;-88
2021/03/05 11:08:33;;;;;;;1.27;0.50;;;17.30;42.70;;;;;;5030169;28;20135;-87
2021/03/05 11:10:58;;;;;;;1.20;0.50;;;17.30;41.20;;;;;;5049624;28;20032;-86
2021/03/05 11:13:24;;;;;;;0.70;0.45;;;17.20;41.80;;;;;;5039785;28;20506;-87
2021/03/05 11:15:49;;;;;;;0.98;0.43;;;17.20;42.10;;;;;;5041915;28;20643;-87
2021/03/05 11:18:15;;;;;;;1.27;0.70;;;17.00;41.50;;;;;;5045360;28;20040;-87
2021/03/05 11:20:41;;;;;;;1.60;0.60;;;17.10;41.90;;;;;;5051550;28;20052;-86
2021/03/05 11:23:06;;;;;;;2.35;0.52;;;17.30;41.80;;;;;;5036040;28;20032;-88
2021/03/05 11:25:32;;;;;;;1.52;0.30;;;17.60;41.40;;;;;;5051989;28;20129;-87
2021/03/05 11:28:00;;;;;;;2.45;0.77;;;17.90;41.00;;;;;;5041942;28;20049;-88
2021/03/05 11:30:26;;;;;;;0.82;0.50;;;18.00;39.70;;;;;;5046602;28;20501;-87
2021/03/05 11:32:51;;;;;;;1.48;0.40;;;17.80;38.90;;;;;;5049489;28;20123;-87
2021/03/05 11:35:18;;;;;;;1.58;0.30;;;17.80;38.60;;;;;;5035097;28;20064;-85
2021/03/05 11:37:44;;;;;;;2.45;0.60;;;17.90;39.00;;;;;;5041477;28;20124;-88
2021/03/05 11:40:10;;;;;;;2.45;0.40;;;17.90;37.50;;;;;;5052227;28;20029;-86
2021/03/05 11:42:36;;;;;;;1.88;0.60;;;17.70;36.60;;;;;;5046370;28;20043;-88
2021/03/05 11:45:05;;;;;;;1.73;0.40;;;17.50;36.40;;;;;;5065914;28;20025;-88
2021/03/05 11:47:34;;;;;;;2.55;0.60;;;17.40;37.10;;;;;;5028609;28;20038;-89
2021/03/05 11:50:01;;;;;;;1.15;0.52;;;17.30;36.30;;;;;;5035689;28;20037;-86
2021/03/05 11:52:27;;;;;;;2.13;0.60;;;17.30;37.60;;;;;;5032823;28;20044;-84
2021/03/05 11:54:53;;;;;;;1.50;0.50;;;17.40;38.50;;;;;;5030469;28;20037;-87
2021/03/05 11:57:19;;;;;;;1.27;0.55;;;17.40;37.20;;;;;;5029375;28;20679;-85
2021/03/05 11:59:44;;;;;;;1.60;0.60;;;17.30;37.70;;;;;;5031055;28;20049;-83
2021/03/05 12:02:10;;;;;;;1.20;0.60;;;17.40;37.40;;;;;;5022622;28;20033;-87
2021/03/05 12:04:37;;;;;;;1.45;0.68;;;17.60;37.00;;;;;;5018393;28;20541;-87
2021/03/05 12:07:03;;;;;;;1.75;0.68;;;17.90;37.30;;;;;;5034144;28;20037;-88
2021/03/05 12:09:28;;;;;;;1.45;0.60;;;18.00;36.20;;;;;;5036201;28;20719;-88
2021/03/05 12:11:54;;;;;;;2.25;0.50;;;18.00;36.90;;;;;;5034060;28;20087;-88
2021/03/05 12:14:19;;;;;;;1.73;0.50;;;17.90;36.90;;;;;;5035407;28;20145;-90
2021/03/05 12:16:45;;;;;;;4.30;0.70;;;18.10;37.30;;;;;;5032554;28;20058;-91
2021/03/05 12:19:11;;;;;;;1.38;0.45;;;18.20;36.80;;;;;;5032776;28;20107;-92
2021/03/05 12:21:36;;;;;;;0.80;0.40;;;18.00;37.00;;;;;;5046437;28;20037;-92
2021/03/05 12:24:03;;;;;;;1.02;0.30;;;18.00;37.70;;;;;;5042087;28;20506;-88
2021/03/05 12:26:28;;;;;;;1.80;0.60;;;18.10;37.10;;;;;;5037575;28;20029;-88
2021/03/05 12:28:54;;;;;;;1.35;0.40;;;18.00;36.60;;;;;;5023077;28;20040;-87
2021/03/05 12:31:20;;;;;;;2.90;0.40;;;17.70;37.30;;;;;;5038770;28;20041;-87
2021/03/05 12:33:45;;;;;;;1.58;0.50;;;17.40;36.80;;;;;;5039381;28;20064;-88
2021/03/05 12:36:12;;;;;;;1.92;0.40;;;17.50;37.10;;;;;;5030676;28;20036;-85
2021/03/05 12:38:38;;;;;;;1.45;0.40;;;17.80;37.20;;;;;;5033723;28;20065;-88
2021/03/05 12:41:04;;;;;;;1.75;0.30;;;18.00;36.90;;;;;;5036221;28;20041;-84
2021/03/05 12:43:30;;;;;;;1.63;0.40;;;18.10;36.90;;;;;;5028291;28;20105;-90
2021/03/05 12:45:56;;;;;;;2.03;0.40;;;18.50;36.70;;;;;;5042991;28;20037;-85
2021/03/05 12:48:22;;;;;;;1.20;0.38;;;18.70;37.20;;;;;;5022755;28;20036;-86
2021/03/05 12:50:48;;;;;;;2.03;0.40;;;19.00;37.10;;;;;;5020743;28;20499;-85
2021/03/05 12:53:13;;;;;;;1.67;0.40;;;18.80;39.00;;;;;;5037301;28;20072;-86
2021/03/05 12:55:39;;;;;;;1.48;0.50;;;18.80;38.60;;;;;;5025706;28;20029;-87